Startpagina
METAR-TAF:

METAR-TAF

Vliegvelden :

Moskou-Sjeremetjevo, Rusland

Luchthaven Sjeremetjevo

breedte: 55-59N, lengte: 037-30E, hoogte: 190 m

Actueel weer

Dit bericht is 19 minuten geleden gemaakt, om 15:00 UTC
Wind 14 kt uit het oosten
Temperatuur 12°C
Vochtigheid 62%
Druk 1032 hPa
Zicht 10 km of meer
geen wolken onder 1500 m en geen cumulonimbus

METAR: UUEE 221500Z 09007MPS CAVOK 12/05 Q1032 R06L/CLRD62 R06R/CLRD62 NOSIG

Tijdstip: 18:19 (15:19 UTC)

Verwachting

Dit bericht is 1 uur en het 23 minuten geleden gemaakt, om 13:56 UTC
Verwachting geldig van 22 om 15 UTC tot 23 om 15 UTC
Wind 14 kt uit het oosten
Zicht 10 km of meer
Gebroken wolken op 1500 ft
Tijdelijke
van 22 om 15 UTC tot 22 om 18 UTC
Wind 23 kt uit het oosten
Tijdelijke
van 23 om 00 UTC tot 23 om 06 UTC
Gebroken wolken op 700 ft

TAF: UUEE 221356Z 2215/2315 09007MPS 9999 BKN015 TX15/2312Z TN04/2303Z TEMPO 2215/2218 10012MPS TEMPO 2300/2306 BKN007

Waarnemingen en weersverwachtingen van meer dan 4000 vliegvelden (METAR en TAF).

De beschikbare stations zijn de gele en rode punten op de kaart.

Ga met uw muis naar het station om de naam te zien.

Klik dan om waarnemingen en weersverwachtingen te zien.

kaart wijzigen: klik op de groene knoppen met een zwart kruis om in te zoomen, op de groene knop met een streepje om uit te zoomen of op de groene pijlen voor aangrenzende kaarten.


METAR-TAF: